MAPA DE AEROPUERTO

INFORMACIÓN METAR y TAF

METAR FOR LERL
ADDS - METARS form results

(1626 UTC 07 May 2021)
Data provider http://aviationweather.gov/metar/data/
 
Forecast for: LERL (CUIDAD REAL , ES)
Text: TAF LERL 070800Z 0709/0809 VRB04KT CAVOK TX29/0715Z TN10/0805Z
Forecast period: 0900 UTC 07 May 2021 to 0900 UTC 08 May 2021
Forecast type: FROM: standard forecast or significant change
Winds: variable direction winds at 5 MPH (4 knots; 2.1 m/s)
Visibility: 6 or more miles (10+ km)
Ceiling: unknown
Clouds: missing
Weather: no significant weather forecast for this period